Time;durP1;ratioP1;P1;durP2;ratioP2;P2;SDS_P1;SDS_P2;PMS_P1;PMS_P2;Temp;Humidity;BMP_temperature;BMP_pressure;BME280_temperature;BME280_humidity;BME280_pressure;Samples;Min_cycle;Max_cycle;Signal;HPM_P1;HPM_P2
2022/01/14 00:00:37;;;;;;;71.18;25.15;;;6.30;99.90;;;;;;5093833;28;20053;-68
2022/01/14 00:03:02;;;;;;;78.25;26.15;;;6.30;99.90;;;;;;5111656;28;20046;-69
2022/01/14 00:05:28;;;;;;;77.68;26.88;;;6.30;99.90;;;;;;5111941;28;20043;-68
2022/01/14 00:07:53;;;;;;;78.95;26.13;;;6.40;99.90;;;;;;5111866;28;20032;-68
2022/01/14 00:10:19;;;;;;;82.43;26.52;;;6.40;99.90;;;;;;5092513;28;20047;-69
2022/01/14 00:12:53;;;;;;;83.80;25.98;;;6.40;99.90;;;;;;5092397;28;20090;-69
2022/01/14 00:15:26;;;;;;;81.25;25.58;;;6.40;99.90;;;;;;5093635;28;20047;-68
2022/01/14 00:17:53;;;;;;;76.75;25.55;;;6.40;99.90;;;;;;5111826;28;20036;-69
2022/01/14 00:20:21;;;;;;;73.93;23.27;;;6.40;99.90;;;;;;5093254;28;20052;-68
2022/01/14 00:22:46;;;;;;;71.22;24.67;;;6.40;99.90;;;;;;5093097;28;20082;-69
2022/01/14 00:33:25;;;;;;;74.55;23.48;;;6.40;99.90;;;;;;5092785;28;20055;-68
2022/01/14 00:35:50;;;;;;;63.22;22.95;;;6.40;99.90;;;;;;5093327;28;20507;-69
2022/01/14 00:38:16;;;;;;;66.57;23.50;;;6.40;99.90;;;;;;5093261;28;20047;-69
2022/01/14 00:40:42;;;;;;;64.43;21.77;;;6.50;99.90;;;;;;5111393;28;20039;-68
2022/01/14 00:43:09;;;;;;;63.22;22.70;;;6.50;99.90;;;;;;5076069;28;20055;-68
2022/01/14 00:45:35;;;;;;;64.88;22.80;;;6.50;99.90;;;;;;5111387;28;20043;-69
2022/01/14 00:48:02;;;;;;;54.25;20.38;;;6.50;99.90;;;;;;5093243;28;20130;-69
2022/01/14 00:50:28;;;;;;;55.47;21.15;;;6.50;99.90;;;;;;5093070;28;20088;-68
2022/01/14 00:52:54;;;;;;;55.40;20.92;;;6.50;99.90;;;;;;5092791;28;20047;-68
2022/01/14 00:55:28;;;;;;;49.97;20.13;;;6.50;99.90;;;;;;5092950;28;20043;-68
2022/01/14 01:00:31;;;;;;;52.30;19.27;;;6.60;99.90;;;;;;5092875;28;20056;-69
2022/01/14 01:02:57;;;;;;;46.78;19.15;;;6.60;99.90;;;;;;5092591;28;20118;-69
2022/01/14 01:05:23;;;;;;;47.03;18.60;;;6.70;99.90;;;;;;5093027;28;20114;-68
2022/01/14 01:08:04;;;;;;;46.15;19.05;;;6.60;99.90;;;;;;5092869;28;20044;-68
2022/01/14 01:10:31;;;;;;;52.28;18.88;;;6.60;99.90;;;;;;5093039;28;20126;-68
2022/01/14 01:13:05;;;;;;;47.13;18.58;;;6.60;99.90;;;;;;5092459;28;20126;-68
2022/01/14 01:15:31;;;;;;;50.78;20.60;;;6.60;99.90;;;;;;5092941;28;20058;-68
2022/01/14 01:17:56;;;;;;;51.03;20.00;;;6.60;99.90;;;;;;5111082;28;20395;-68
2022/01/14 01:20:22;;;;;;;74.90;22.70;;;6.60;99.90;;;;;;5111073;28;20052;-68
2022/01/14 01:22:51;;;;;;;48.55;19.88;;;6.70;99.90;;;;;;5110449;28;20043;-68
2022/01/14 01:25:21;;;;;;;50.08;19.30;;;6.60;99.90;;;;;;5093077;28;20043;-68
2022/01/14 01:27:48;;;;;;;56.55;20.70;;;6.60;99.90;;;;;;5092793;28;20046;-68
2022/01/14 01:30:26;;;;;;;45.10;18.90;;;6.60;99.90;;;;;;5092775;28;20039;-69
2022/01/14 01:32:52;;;;;;;44.03;19.65;;;6.60;99.90;;;;;;5092248;28;20047;-69
2022/01/14 01:35:17;;;;;;;51.38;22.50;;;6.60;99.90;;;;;;5092615;28;20506;-69
2022/01/14 01:37:43;;;;;;;47.05;20.40;;;6.70;99.90;;;;;;5092727;28;20444;-68
2022/01/14 01:40:09;;;;;;;55.20;20.50;;;6.70;99.90;;;;;;5092515;28;20054;-68
2022/01/14 01:42:39;;;;;;;52.05;20.73;;;6.70;99.90;;;;;;5110495;28;20130;-68
2022/01/14 01:45:09;;;;;;;52.00;22.42;;;6.70;99.90;;;;;;5092570;28;20119;-69
2022/01/14 01:47:35;;;;;;;43.90;20.90;;;6.70;99.90;;;;;;5092609;28;20085;-69
2022/01/14 01:50:15;;;;;;;45.53;21.40;;;6.70;99.90;;;;;;5092732;28;20511;-68
2022/01/14 01:52:41;;;;;;;52.38;21.70;;;6.70;99.90;;;;;;5092334;28;20051;-68
2022/01/14 01:55:09;;;;;;;50.67;21.90;;;6.70;99.90;;;;;;5110717;28;20043;-68
2022/01/14 01:57:35;;;;;;;54.17;22.15;;;6.70;99.90;;;;;;5110769;28;20036;-68
2022/01/14 02:00:03;;;;;;;51.50;22.38;;;6.70;99.90;;;;;;5110581;28;20050;-69
2022/01/14 02:02:30;;;;;;;54.20;22.13;;;6.70;99.90;;;;;;5091759;28;20047;-68
2022/01/14 02:04:56;;;;;;;60.60;24.85;;;6.70;99.90;;;;;;5092468;28;20119;-68
2022/01/14 02:07:22;;;;;;;65.97;24.92;;;6.70;99.90;;;;;;5114087;28;20388;-68
2022/01/14 02:09:48;;;;;;;60.72;25.85;;;6.70;99.90;;;;;;5096208;28;20046;-68
2022/01/14 02:12:13;;;;;;;66.95;25.27;;;6.70;99.90;;;;;;5078547;28;20079;-69
2022/01/14 02:22:55;;;;;;;73.13;26.88;;;6.70;99.90;;;;;;5094883;28;20048;-68
2022/01/14 02:25:29;;;;;;;73.15;26.25;;;6.70;99.90;;;;;;5095745;28;20043;-68
2022/01/14 02:28:07;;;;;;;72.63;27.02;;;6.60;99.90;;;;;;5095575;28;20044;-68
2022/01/14 02:30:39;;;;;;;72.30;25.52;;;6.70;99.90;;;;;;5095553;28;20111;-68
2022/01/14 02:33:05;;;;;;;68.40;26.73;;;6.60;99.90;;;;;;5095001;28;20040;-69
2022/01/14 02:35:31;;;;;;;67.60;27.10;;;6.60;99.90;;;;;;5095537;28;20051;-69
2022/01/14 02:37:58;;;;;;;72.18;26.67;;;6.60;99.90;;;;;;5095257;28;20039;-68
2022/01/14 02:40:23;;;;;;;62.97;24.45;;;6.60;99.90;;;;;;5095221;28;20130;-69
2022/01/14 02:42:49;;;;;;;65.90;24.80;;;6.60;99.90;;;;;;5094931;28;20122;-68
2022/01/14 02:45:16;;;;;;;65.63;25.98;;;6.60;99.90;;;;;;5095423;28;20047;-68
2022/01/14 02:47:44;;;;;;;69.38;25.38;;;6.60;99.90;;;;;;5095549;28;20525;-68
2022/01/14 02:50:14;;;;;;;58.70;25.17;;;6.60;99.90;;;;;;5095145;28;20058;-68
2022/01/14 02:52:56;;;;;;;68.55;24.58;;;6.60;99.90;;;;;;5113190;28;20407;-68
2022/01/14 02:55:29;;;;;;;64.35;25.25;;;6.60;99.90;;;;;;5095334;28;20395;-68
2022/01/14 02:57:57;;;;;;;63.35;25.58;;;6.60;99.90;;;;;;5113415;28;20440;-69
2022/01/14 03:00:30;;;;;;;66.82;24.42;;;6.60;99.90;;;;;;5113112;28;20157;-68
2022/01/14 03:02:59;;;;;;;70.47;25.23;;;6.60;99.90;;;;;;5094673;28;20039;-69
2022/01/14 03:05:27;;;;;;;67.53;25.48;;;6.60;99.90;;;;;;5113130;28;20047;-68
2022/01/14 03:07:53;;;;;;;63.33;23.88;;;6.60;99.90;;;;;;5095100;28;20035;-68
2022/01/14 03:10:19;;;;;;;63.13;24.23;;;6.60;99.90;;;;;;5112908;28;20054;-68
2022/01/14 03:12:46;;;;;;;66.20;24.73;;;6.60;99.90;;;;;;5094353;28;20515;-68
2022/01/14 03:15:13;;;;;;;65.90;23.90;;;6.60;99.90;;;;;;5094746;28;20054;-68
2022/01/14 03:17:39;;;;;;;63.65;25.95;;;6.60;99.90;;;;;;5112755;28;20035;-68
2022/01/14 03:20:10;;;;;;;67.43;25.65;;;6.60;99.90;;;;;;5094528;28;20051;-68
2022/01/14 03:22:36;;;;;;;68.60;23.90;;;6.60;99.90;;;;;;5094476;28;20436;-68
2022/01/14 03:27:52;;;;;;;72.10;26.55;;;6.60;99.90;;;;;;5094447;28;20051;-68
2022/01/14 03:30:18;;;;;;;69.78;25.52;;;6.60;99.90;;;;;;5094339;28;20054;-68
2022/01/14 03:32:44;;;;;;;64.47;27.90;;;6.50;99.90;;;;;;5076932;28;20043;-68
2022/01/14 03:35:11;;;;;;;65.70;25.08;;;6.60;99.90;;;;;;5112592;28;20101;-69
2022/01/14 03:37:37;;;;;;;66.90;25.27;;;6.50;99.90;;;;;;5094428;28;20071;-69
2022/01/14 03:40:05;;;;;;;69.80;26.10;;;6.50;99.90;;;;;;5094252;28;20071;-68
2022/01/14 03:42:31;;;;;;;72.97;27.35;;;6.50;99.90;;;;;;5112102;28;20048;-68
2022/01/14 03:44:56;;;;;;;73.53;25.88;;;6.50;99.90;;;;;;5094171;28;20402;-69
2022/01/14 03:47:22;;;;;;;68.53;25.85;;;6.60;99.90;;;;;;5094302;28;20054;-69
2022/01/14 03:49:48;;;;;;;65.28;25.48;;;6.60;99.90;;;;;;5094074;28;20051;-69
2022/01/14 03:52:14;;;;;;;67.82;26.02;;;6.50;99.90;;;;;;5093519;28;20058;-68
2022/01/14 03:54:39;;;;;;;75.82;26.33;;;6.50;99.90;;;;;;5112309;28;20040;-68
2022/01/14 03:57:05;;;;;;;70.95;25.52;;;6.50;99.90;;;;;;5112144;28;20393;-68
2022/01/14 03:59:31;;;;;;;69.72;26.02;;;6.60;99.90;;;;;;5111891;28;20404;-68
2022/01/14 04:01:57;;;;;;;64.45;26.02;;;6.50;99.90;;;;;;5093602;28;20659;-68
2022/01/14 04:04:22;;;;;;;61.30;25.38;;;6.60;99.90;;;;;;5093816;28;20039;-68
2022/01/14 04:06:48;;;;;;;71.40;25.50;;;6.60;99.90;;;;;;5093745;28;20079;-68
2022/01/14 04:09:13;;;;;;;68.07;24.77;;;6.60;99.90;;;;;;5093823;28;20118;-68
2022/01/14 04:11:39;;;;;;;58.92;24.92;;;6.60;99.90;;;;;;5093615;28;20157;-68
2022/01/14 04:15:36;;;;;;;58.30;23.65;;;6.60;99.90;;;;;;5111665;28;20063;-69
2022/01/14 04:16:56;;;;;;;60.30;24.10;;;6.60;99.90;;;;;;5093427;28;20499;-68
2022/01/14 04:19:24;;;;;;;52.97;23.73;;;6.60;99.90;;;;;;5111826;28;20177;-69
2022/01/14 04:21:49;;;;;;;62.28;24.92;;;6.60;99.90;;;;;;5111450;28;20132;-68
2022/01/14 04:24:15;;;;;;;55.42;24.17;;;6.60;99.90;;;;;;5093138;28;20532;-69
2022/01/14 04:26:40;;;;;;;63.72;25.15;;;6.60;99.90;;;;;;5094272;28;20438;-69
2022/01/14 04:29:06;;;;;;;64.38;25.77;;;6.50;99.90;;;;;;5093163;28;20042;-69
2022/01/14 04:31:31;;;;;;;64.93;25.33;;;6.50;99.90;;;;;;5112103;28;20046;-68
2022/01/14 04:33:57;;;;;;;65.25;24.83;;;6.60;99.90;;;;;;5111971;28;20028;-69
2022/01/14 04:36:22;;;;;;;65.93;23.52;;;6.50;99.90;;;;;;5112107;28;20114;-69
2022/01/14 04:38:48;;;;;;;62.10;24.70;;;6.60;99.90;;;;;;5093926;28;20043;-68
2022/01/14 04:41:13;;;;;;;61.67;25.70;;;6.50;99.90;;;;;;5076501;28;20484;-69
2022/01/14 04:43:39;;;;;;;61.38;24.52;;;6.60;99.90;;;;;;5092916;28;20389;-69
2022/01/14 04:48:36;;;;;;;65.50;24.40;;;6.50;99.90;;;;;;5111510;28;20043;-69
2022/01/14 04:51:09;;;;;;;63.35;25.15;;;6.60;99.90;;;;;;5111667;28;20395;-69
2022/01/14 04:53:35;;;;;;;60.42;24.60;;;6.60;99.90;;;;;;5092780;28;20105;-69
2022/01/14 04:56:01;;;;;;;58.35;24.33;;;6.60;99.90;;;;;;5076248;28;20471;-68
2022/01/14 04:58:28;;;;;;;63.65;26.13;;;6.50;99.90;;;;;;5093014;28;20495;-69
2022/01/14 05:00:54;;;;;;;78.78;27.80;;;6.50;99.90;;;;;;5093068;28;20115;-69
2022/01/14 05:03:20;;;;;;;59.95;25.02;;;6.50;99.90;;;;;;5092689;28;20050;-69
2022/01/14 05:05:49;;;;;;;59.30;24.42;;;6.60;99.90;;;;;;5111303;28;20039;-69
2022/01/14 05:08:23;;;;;;;65.15;23.75;;;6.60;99.90;;;;;;5093014;28;20134;-69
2022/01/14 05:13:23;;;;;;;52.47;21.30;;;6.50;99.90;;;;;;5092828;28;20608;-69
2022/01/14 05:15:48;;;;;;;52.53;22.23;;;6.60;99.90;;;;;;5111156;28;20454;-69
2022/01/14 05:18:14;;;;;;;54.40;23.60;;;6.60;99.90;;;;;;5111228;28;20078;-69
2022/01/14 05:20:39;;;;;;;50.45;23.08;;;6.60;99.90;;;;;;5076161;28;20058;-68
2022/01/14 05:23:05;;;;;;;51.40;22.00;;;6.50;99.90;;;;;;5110482;28;20038;-69
2022/01/14 05:25:31;;;;;;;51.13;22.10;;;6.50;99.90;;;;;;5092905;28;20048;-69
2022/01/14 05:27:56;;;;;;;59.03;22.42;;;6.50;99.90;;;;;;5110944;28;20031;-68
2022/01/14 05:30:22;;;;;;;54.53;22.88;;;6.50;99.90;;;;;;5110995;28;20071;-69
2022/01/14 05:32:51;;;;;;;51.85;21.75;;;6.50;99.90;;;;;;5092117;28;20044;-69
2022/01/14 05:35:20;;;;;;;62.42;24.45;;;6.50;99.90;;;;;;5093011;28;20043;-69
2022/01/14 05:37:46;;;;;;;53.60;22.98;;;6.50;99.90;;;;;;5092659;28;20092;-69
2022/01/14 05:40:13;;;;;;;65.82;24.92;;;6.60;99.90;;;;;;5094475;28;20040;-68
2022/01/14 05:42:39;;;;;;;63.75;24.67;;;6.60;99.90;;;;;;5096081;28;20044;-68
2022/01/14 05:45:09;;;;;;;59.15;22.60;;;6.50;99.90;;;;;;5114745;28;20048;-69
2022/01/14 05:47:36;;;;;;;59.30;24.52;;;6.50;99.90;;;;;;5096526;28;20055;-69
2022/01/14 05:50:05;;;;;;;66.38;26.10;;;6.50;99.90;;;;;;5114799;28;20043;-69
2022/01/14 05:52:31;;;;;;;62.53;23.80;;;6.50;99.90;;;;;;5095910;28;20082;-69
2022/01/14 05:54:56;;;;;;;59.63;25.35;;;6.50;99.90;;;;;;5096369;28;20067;-69
2022/01/14 05:57:22;;;;;;;57.67;22.67;;;6.50;99.90;;;;;;5096431;28;20100;-69
2022/01/14 05:59:48;;;;;;;65.45;25.88;;;6.50;99.90;;;;;;5096067;28;20058;-69
2022/01/14 06:02:15;;;;;;;54.28;22.98;;;6.50;99.90;;;;;;5095845;28;20039;-69
2022/01/14 06:04:42;;;;;;;65.20;23.35;;;6.50;99.90;;;;;;5096048;28;20063;-69
2022/01/14 06:07:09;;;;;;;60.03;23.50;;;6.50;99.90;;;;;;5114425;28;20138;-68
2022/01/14 06:09:35;;;;;;;52.38;23.25;;;6.40;99.90;;;;;;5095867;28;20040;-69
2022/01/14 06:12:00;;;;;;;55.88;23.20;;;6.40;99.90;;;;;;5095976;28;20130;-69
2022/01/14 06:14:26;;;;;;;53.53;22.25;;;6.40;99.90;;;;;;5114174;28;20043;-69
2022/01/14 06:16:51;;;;;;;50.20;22.00;;;6.50;99.90;;;;;;5114321;28;20492;-69
2022/01/14 06:19:17;;;;;;;53.40;22.10;;;6.40;99.90;;;;;;5095818;28;20079;-69
2022/01/14 06:21:43;;;;;;;45.85;20.95;;;6.40;99.90;;;;;;5114192;28;20071;-69
2022/01/14 06:24:08;;;;;;;54.63;22.52;;;6.40;99.90;;;;;;5095676;28;20044;-69
2022/01/14 06:26:34;;;;;;;49.67;21.40;;;6.40;99.90;;;;;;5079240;28;20031;-69
2022/01/14 06:28:59;;;;;;;53.00;21.50;;;6.40;99.90;;;;;;5095973;28;20040;-69
2022/01/14 06:31:25;;;;;;;52.65;20.08;;;6.40;99.90;;;;;;5096195;28;20043;-69
2022/01/14 06:33:53;;;;;;;51.30;20.73;;;6.40;99.90;;;;;;5095639;28;20064;-69
2022/01/14 06:36:19;;;;;;;48.58;21.70;;;6.40;99.90;;;;;;5095646;28;20053;-69
2022/01/14 06:38:44;;;;;;;51.75;20.95;;;6.40;99.90;;;;;;5095602;28;20055;-69
2022/01/14 06:41:10;;;;;;;44.10;20.05;;;6.50;99.90;;;;;;5095325;28;20055;-68
2022/01/14 06:43:36;;;;;;;47.50;19.20;;;6.40;99.90;;;;;;5095058;28;20046;-69
2022/01/14 06:46:01;;;;;;;52.00;20.50;;;6.50;99.90;;;;;;5095606;28;20403;-69
2022/01/14 06:48:27;;;;;;;43.95;21.05;;;6.50;99.90;;;;;;5095229;28;20039;-69
2022/01/14 06:50:52;;;;;;;46.20;20.95;;;6.50;99.90;;;;;;5094864;28;20571;-69
2022/01/14 06:53:18;;;;;;;45.42;19.77;;;6.50;99.90;;;;;;5094565;28;20050;-69
2022/01/14 06:55:44;;;;;;;45.45;19.92;;;6.40;99.90;;;;;;5095129;28;20458;-69
2022/01/14 06:58:09;;;;;;;49.33;19.90;;;6.50;99.90;;;;;;5113295;28;20069;-69
2022/01/14 07:00:35;;;;;;;47.17;19.05;;;6.50;99.90;;;;;;5095019;28;20415;-69
2022/01/14 07:03:01;;;;;;;44.30;19.65;;;6.50;99.90;;;;;;5094480;28;20043;-69
2022/01/14 07:05:27;;;;;;;44.75;20.70;;;6.50;99.90;;;;;;5095210;28;20522;-69
2022/01/14 07:07:53;;;;;;;47.22;19.73;;;6.50;99.90;;;;;;5094886;28;20044;-69
2022/01/14 07:10:18;;;;;;;40.67;19.17;;;6.50;99.90;;;;;;5113132;28;20044;-69
2022/01/14 07:12:44;;;;;;;44.40;18.88;;;6.40;99.90;;;;;;5077782;28;20085;-69
2022/01/14 07:15:13;;;;;;;42.30;19.45;;;6.50;99.90;;;;;;5095007;28;20051;-68
2022/01/14 07:17:40;;;;;;;42.78;19.67;;;6.50;99.90;;;;;;5112969;28;20092;-68
2022/01/14 07:20:12;;;;;;;42.58;18.48;;;6.50;99.90;;;;;;5094560;28;20074;-68
2022/01/14 07:22:38;;;;;;;40.70;19.55;;;6.40;99.90;;;;;;5094268;28;20047;-68
2022/01/14 07:25:04;;;;;;;43.88;19.83;;;6.40;99.90;;;;;;5093642;28;20051;-69
2022/01/14 07:27:30;;;;;;;46.78;19.27;;;6.50;99.90;;;;;;5095065;28;20088;-69
2022/01/14 07:29:55;;;;;;;43.05;20.30;;;6.40;99.90;;;;;;5094696;28;20118;-69
2022/01/14 07:32:21;;;;;;;42.35;18.38;;;6.50;99.90;;;;;;5094899;28;20051;-69
2022/01/14 07:34:48;;;;;;;33.88;17.52;;;6.40;99.90;;;;;;5113329;28;20034;-69
2022/01/14 07:37:14;;;;;;;38.17;19.80;;;6.50;99.90;;;;;;5113493;28;20039;-69
2022/01/14 07:39:40;;;;;;;36.55;18.45;;;6.50;99.90;;;;;;5095013;28;20535;-69
2022/01/14 07:42:06;;;;;;;42.78;19.35;;;6.50;99.90;;;;;;5094954;28;20123;-69
2022/01/14 07:44:31;;;;;;;40.80;19.05;;;6.50;99.90;;;;;;5095442;28;20096;-69
2022/01/14 07:46:57;;;;;;;39.25;19.65;;;6.50;99.90;;;;;;5113269;28;20047;-69
2022/01/14 07:49:23;;;;;;;44.75;19.48;;;6.50;99.90;;;;;;5111555;28;20114;-69
2022/01/14 07:51:48;;;;;;;42.15;19.33;;;6.50;99.90;;;;;;5109791;28;20461;-69
2022/01/14 07:54:14;;;;;;;45.78;20.08;;;6.50;99.90;;;;;;5091703;28;20047;-68
2022/01/14 07:56:45;;;;;;;36.17;19.05;;;6.50;99.90;;;;;;5111487;28;20506;-69
2022/01/14 07:59:13;;;;;;;36.17;18.02;;;6.50;99.90;;;;;;5094160;28;20036;-69
2022/01/14 08:01:40;;;;;;;33.90;17.80;;;6.50;99.90;;;;;;5093920;28;20500;-68
2022/01/14 08:04:06;;;;;;;44.85;19.25;;;6.50;99.90;;;;;;5092870;28;20548;-68
2022/01/14 08:06:34;;;;;;;41.88;18.27;;;6.50;99.90;;;;;;5076580;28;20040;-69
2022/01/14 08:09:00;;;;;;;37.45;18.45;;;6.50;99.90;;;;;;5093790;28;20040;-68
2022/01/14 08:11:26;;;;;;;35.03;19.70;;;6.50;99.90;;;;;;5112735;28;20031;-69
2022/01/14 08:13:51;;;;;;;37.65;19.33;;;6.50;99.90;;;;;;5094313;28;20095;-68
2022/01/14 08:16:17;;;;;;;37.33;18.13;;;6.50;99.90;;;;;;5094811;28;20053;-68
2022/01/14 08:18:42;;;;;;;39.22;18.17;;;6.50;99.90;;;;;;5094443;28;20035;-68
2022/01/14 08:21:08;;;;;;;38.30;17.75;;;6.50;99.90;;;;;;5094492;28;20128;-68
2022/01/14 08:23:34;;;;;;;49.72;19.35;;;6.60;99.90;;;;;;5076510;28;20031;-69
2022/01/14 08:25:59;;;;;;;36.67;19.45;;;6.60;99.90;;;;;;5094683;28;20180;-67
2022/01/14 08:28:26;;;;;;;37.40;17.50;;;6.60;99.90;;;;;;5112542;28;20039;-68
2022/01/14 08:30:52;;;;;;;35.92;18.75;;;6.60;99.90;;;;;;5094226;28;20075;-68
2022/01/14 08:33:18;;;;;;;34.58;16.42;;;6.60;99.90;;;;;;5093635;28;20534;-68
2022/01/14 08:35:45;;;;;;;39.22;17.45;;;6.60;99.90;;;;;;5094212;28;20032;-68
2022/01/14 08:38:11;;;;;;;34.20;18.70;;;6.60;99.90;;;;;;5094132;28;20051;-68
2022/01/14 08:40:38;;;;;;;32.13;17.35;;;6.60;99.90;;;;;;5094175;28;20043;-69
2022/01/14 08:43:04;;;;;;;36.20;17.05;;;6.60;99.90;;;;;;5093773;28;20040;-68
2022/01/14 08:45:30;;;;;;;35.40;17.50;;;6.70;99.90;;;;;;5112164;28;20043;-69
2022/01/14 08:47:56;;;;;;;44.13;17.02;;;6.70;99.90;;;;;;5112299;28;20039;-69
2022/01/14 08:50:23;;;;;;;38.83;18.20;;;6.70;99.90;;;;;;5112172;28;20039;-68
2022/01/14 08:52:49;;;;;;;39.53;20.40;;;6.70;99.90;;;;;;5111920;28;20047;-68
2022/01/14 08:55:16;;;;;;;44.15;22.48;;;6.70;99.90;;;;;;5094297;28;20380;-68
2022/01/14 08:57:43;;;;;;;48.10;22.48;;;6.70;99.90;;;;;;5093950;28;20039;-69
2022/01/14 09:00:11;;;;;;;40.55;20.13;;;6.70;99.90;;;;;;5112160;28;20043;-68
2022/01/14 09:02:37;;;;;;;42.60;18.67;;;6.70;99.90;;;;;;5093642;28;20048;-68
2022/01/14 09:05:02;;;;;;;35.33;18.10;;;6.70;99.90;;;;;;5094150;28;20043;-68
2022/01/14 09:07:28;;;;;;;40.95;19.73;;;6.70;99.90;;;;;;5093858;28;20036;-69
2022/01/14 09:09:54;;;;;;;32.35;16.38;;;6.80;99.90;;;;;;5112017;28;20067;-68
2022/01/14 09:12:21;;;;;;;39.30;19.50;;;6.90;99.90;;;;;;5103267;28;20040;-68
2022/01/14 09:14:46;;;;;;;35.58;16.73;;;6.90;99.90;;;;;;5092629;28;20028;-69
2022/01/14 09:17:13;;;;;;;40.25;17.42;;;6.90;99.90;;;;;;5113716;28;20601;-69
2022/01/14 09:19:42;;;;;;;42.60;17.38;;;6.80;99.90;;;;;;5097093;28;20043;-72
2022/01/14 09:22:08;;;;;;;35.03;17.10;;;6.90;99.90;;;;;;5087102;27;20035;-69
2022/01/14 09:24:36;;;;;;;37.63;17.67;;;6.90;99.90;;;;;;5135264;27;20039;-69
2022/01/14 09:27:02;;;;;;;36.58;18.05;;;6.80;99.90;;;;;;5117564;27;20084;-73
2022/01/14 09:29:28;;;;;;;40.22;17.98;;;6.90;99.90;;;;;;5117480;27;20065;-72
2022/01/14 09:31:54;;;;;;;41.88;19.20;;;6.90;99.90;;;;;;5116514;27;20487;-70
2022/01/14 09:34:19;;;;;;;32.58;16.73;;;6.90;99.90;;;;;;5117482;27;20558;-69
2022/01/14 09:36:45;;;;;;;34.17;16.90;;;6.90;99.90;;;;;;5100832;27;20043;-70
2022/01/14 09:39:11;;;;;;;31.88;16.20;;;6.90;99.90;;;;;;5117903;27;20043;-70
2022/01/14 09:41:38;;;;;;;31.33;15.73;;;7.00;99.90;;;;;;5115925;27;20504;-69
2022/01/14 09:44:04;;;;;;;38.75;17.85;;;6.90;99.90;;;;;;5117116;27;20031;-69
2022/01/14 09:46:30;;;;;;;37.45;18.65;;;6.90;99.90;;;;;;5135143;27;20503;-69
2022/01/14 09:48:56;;;;;;;36.53;17.05;;;7.00;99.90;;;;;;5135276;27;20043;-70
2022/01/14 09:51:22;;;;;;;28.30;14.07;;;7.00;99.90;;;;;;5100302;27;20421;-70
2022/01/14 09:53:48;;;;;;;32.28;13.77;;;7.00;99.90;;;;;;5116851;27;20035;-69
2022/01/14 09:56:19;;;;;;;25.80;14.80;;;7.00;99.90;;;;;;5135331;27;20039;-69
2022/01/14 09:58:49;;;;;;;28.20;14.23;;;7.00;99.90;;;;;;5135611;27;20039;-69
2022/01/14 10:01:18;;;;;;;29.15;13.95;;;7.10;99.90;;;;;;5100081;27;20407;-69
2022/01/14 10:03:56;;;;;;;39.38;14.00;;;7.10;99.90;;;;;;5116158;27;20088;-69
2022/01/14 10:06:42;;;;;;;28.80;14.82;;;7.10;99.90;;;;;;5116959;27;20066;-69
2022/01/14 10:09:22;;;;;;;24.80;12.85;;;7.10;99.90;;;;;;5141703;27;20108;-69
2022/01/14 10:12:06;;;;;;;34.58;12.82;;;7.10;99.90;;;;;;5134680;27;20134;-69
2022/01/14 10:14:35;;;;;;;25.52;12.50;;;7.20;99.90;;;;;;5099795;27;20074;-69
2022/01/14 10:17:04;;;;;;;26.77;12.40;;;7.20;99.90;;;;;;5116047;27;20043;-69
2022/01/14 10:19:34;;;;;;;28.88;13.27;;;7.20;99.90;;;;;;5140508;27;20066;-70
2022/01/14 10:22:00;;;;;;;25.02;12.48;;;7.20;99.90;;;;;;5116621;27;20058;-70
2022/01/14 10:24:29;;;;;;;24.45;12.57;;;7.20;99.90;;;;;;5117303;27;20035;-69
2022/01/14 10:27:01;;;;;;;27.35;11.77;;;7.30;99.90;;;;;;5142378;27;20054;-69
2022/01/14 10:29:33;;;;;;;23.77;11.30;;;7.30;99.90;;;;;;5124203;27;20505;-70
2022/01/14 10:32:00;;;;;;;26.73;11.90;;;7.30;99.90;;;;;;5124595;27;20332;-69
2022/01/14 10:34:26;;;;;;;25.30;11.60;;;7.30;99.90;;;;;;5144711;27;20027;-69
2022/01/14 10:37:15;;;;;;;29.90;11.95;;;7.30;99.90;;;;;;5144555;27;20122;-69
2022/01/14 10:39:49;;;;;;;28.73;12.60;;;7.40;99.90;;;;;;5119335;27;20039;-70
2022/01/14 10:42:28;;;;;;;25.38;11.48;;;7.30;99.90;;;;;;5099271;27;20050;-69
2022/01/14 10:44:55;;;;;;;24.58;9.88;;;7.30;99.90;;;;;;5116677;27;20047;-69
2022/01/14 10:47:25;;;;;;;20.10;10.45;;;7.40;99.90;;;;;;5116859;27;20424;-69
2022/01/14 10:49:56;;;;;;;22.65;10.23;;;7.40;99.90;;;;;;5116411;27;20494;-69
2022/01/14 10:52:26;;;;;;;21.80;9.68;;;7.40;99.90;;;;;;5116224;27;20035;-69
2022/01/14 10:54:54;;;;;;;21.08;10.38;;;7.40;99.90;;;;;;5116414;27;20081;-69
2022/01/14 10:57:23;;;;;;;30.17;10.65;;;7.40;99.90;;;;;;5116603;27;20031;-69
2022/01/14 10:59:50;;;;;;;26.77;10.82;;;7.40;99.90;;;;;;5123906;27;20047;-69
2022/01/14 11:02:34;;;;;;;24.20;11.15;;;7.50;99.90;;;;;;5111600;27;20031;-69
2022/01/14 11:05:05;;;;;;;19.27;10.18;;;7.50;99.90;;;;;;5133543;27;20042;-70
2022/01/14 11:07:31;;;;;;;17.70;8.88;;;7.50;99.90;;;;;;5115385;27;20046;-69
2022/01/14 11:09:58;;;;;;;14.35;9.40;;;7.50;99.90;;;;;;5133464;27;20043;-69
2022/01/14 11:12:25;;;;;;;24.00;8.63;;;7.50;99.90;;;;;;5114745;27;20106;-69
2022/01/14 11:14:50;;;;;;;20.40;8.63;;;7.50;99.90;;;;;;5134524;27;20110;-69
2022/01/14 11:17:16;;;;;;;16.88;8.80;;;7.50;99.90;;;;;;5134475;27;20075;-69
2022/01/14 11:19:46;;;;;;;21.90;8.00;;;7.60;99.90;;;;;;5115847;27;20066;-69
2022/01/14 11:24:57;;;;;;;26.38;9.55;;;7.60;99.90;;;;;;5134326;27;20051;-72
2022/01/14 11:27:24;;;;;;;23.70;9.18;;;7.60;99.90;;;;;;5134139;27;20043;-69
2022/01/14 11:29:58;;;;;;;18.65;8.95;;;7.60;99.90;;;;;;5115547;27;20039;-69
2022/01/14 11:32:27;;;;;;;24.60;9.43;;;7.60;99.90;;;;;;5115448;27;20047;-69
2022/01/14 11:34:53;;;;;;;22.90;8.20;;;7.60;99.90;;;;;;5115531;27;20126;-69
2022/01/14 11:37:33;;;;;;;31.48;8.27;;;7.60;99.90;;;;;;5115482;27;20122;-69
2022/01/14 11:40:08;;;;;;;20.85;9.07;;;7.60;99.90;;;;;;5133835;27;20106;-68
2022/01/14 11:42:42;;;;;;;29.17;12.35;;;7.70;99.90;;;;;;5098302;27;20196;-68
2022/01/14 11:45:15;;;;;;;23.52;9.27;;;7.70;99.90;;;;;;5115583;27;20495;-68
2022/01/14 11:47:43;;;;;;;18.73;7.53;;;7.70;99.90;;;;;;5136349;27;20038;-68
2022/01/14 11:50:28;;;;;;;31.75;15.25;;;7.70;99.90;;;;;;5122040;27;20043;-68
2022/01/14 11:52:54;;;;;;;20.55;8.23;;;7.70;99.90;;;;;;5112898;27;20555;-68
2022/01/14 11:55:22;;;;;;;18.63;7.30;;;7.60;99.90;;;;;;5114881;27;20039;-68
2022/01/14 11:57:52;;;;;;;18.02;7.63;;;7.70;99.90;;;;;;5114179;27;20047;-68
2022/01/14 12:03:25;;;;;;;14.13;6.70;;;7.70;99.90;;;;;;5113825;27;20078;-68
2022/01/14 12:05:55;;;;;;;20.48;6.70;;;7.60;99.90;;;;;;5114784;27;20046;-67
2022/01/14 12:08:29;;;;;;;14.45;6.30;;;7.70;99.90;;;;;;5112658;27;20061;-68
2022/01/14 12:11:04;;;;;;;22.40;9.65;;;7.70;99.90;;;;;;5133074;27;20042;-68
2022/01/14 12:13:38;;;;;;;24.65;7.43;;;7.70;99.90;;;;;;5132678;27;20085;-68
2022/01/14 12:18:59;;;;;;;17.30;7.10;;;7.70;99.90;;;;;;5112280;28;20431;-67
2022/01/14 12:21:50;;;;;;;17.33;5.85;;;7.70;99.90;;;;;;5093962;28;20048;-67
2022/01/14 12:24:18;;;;;;;26.25;7.13;;;7.70;99.90;;;;;;5093914;28;20054;-67
2022/01/14 12:26:47;;;;;;;14.25;6.55;;;7.70;99.90;;;;;;5094319;28;20039;-68
2022/01/14 12:29:14;;;;;;;21.55;6.60;;;7.70;99.90;;;;;;5094279;28;20071;-67
2022/01/14 12:32:08;;;;;;;18.95;6.20;;;7.70;99.90;;;;;;5094076;28;20040;-68
2022/01/14 12:35:04;;;;;;;12.77;5.68;;;7.70;99.90;;;;;;5094287;28;20108;-67
2022/01/14 12:37:33;;;;;;;15.45;5.97;;;7.70;99.90;;;;;;5094572;28;20569;-68
2022/01/14 12:40:20;;;;;;;16.27;6.15;;;7.70;99.90;;;;;;5112398;28;20043;-67
2022/01/14 12:43:09;;;;;;;16.77;5.40;;;7.70;99.90;;;;;;5093948;28;20069;-67
2022/01/14 12:46:02;;;;;;;20.02;6.13;;;7.70;99.90;;;;;;5112459;28;20039;-67
2022/01/14 12:51:04;;;;;;;15.80;6.50;;;7.80;99.90;;;;;;5093650;28;20061;-67
2022/01/14 12:53:30;;;;;;;18.40;6.28;;;7.80;99.90;;;;;;5093669;28;20126;-68
2022/01/14 12:55:58;;;;;;;17.60;5.63;;;7.70;99.90;;;;;;5112281;28;20106;-67
2022/01/14 12:58:24;;;;;;;14.70;6.05;;;7.80;99.90;;;;;;5093949;28;20118;-67
2022/01/14 13:00:49;;;;;;;15.23;6.65;;;7.80;99.90;;;;;;5094057;28;20126;-67
2022/01/14 13:03:16;;;;;;;13.90;5.88;;;7.70;99.90;;;;;;5111747;28;20035;-67
2022/01/14 13:05:42;;;;;;;15.90;5.93;;;7.70;99.90;;;;;;5094169;28;20480;-67
2022/01/14 13:08:08;;;;;;;13.65;5.55;;;7.80;99.90;;;;;;5094083;28;20051;-67
2022/01/14 13:10:35;;;;;;;19.17;6.20;;;7.80;99.90;;;;;;5112169;28;20042;-67
2022/01/14 13:13:03;;;;;;;12.43;6.13;;;7.80;99.90;;;;;;5113672;28;20484;-67
2022/01/14 13:15:31;;;;;;;12.52;6.10;;;7.80;99.90;;;;;;5111742;28;20054;-67
2022/01/14 13:18:02;;;;;;;26.85;6.75;;;7.80;99.90;;;;;;5093811;28;20055;-67
2022/01/14 13:20:30;;;;;;;20.95;6.22;;;7.80;99.90;;;;;;5093691;28;20058;-67